Time;durP1;ratioP1;P1;durP2;ratioP2;P2;SDS_P1;SDS_P2;PMS_P1;PMS_P2;Temp;Humidity;BMP_temperature;BMP_pressure;BME280_temperature;BME280_humidity;BME280_pressure;Samples;Min_cycle;Max_cycle;Signal;HPM_P1;HPM_P2
2022/11/11 00:01:36;;;;;;;5.25;0.93;;;;;;;;;;4804555;29;20063;-73
2022/11/11 00:04:26;;;;;;;0.47;0.30;;;;;;;;;;4799665;29;20039;-75
2022/11/11 00:07:16;;;;;;;1.05;0.57;;;;;;;;;;4788489;29;20055;-74
2022/11/11 00:10:05;;;;;;;2.35;0.50;;;;;;;;;;4800082;29;20483;-74
2022/11/11 00:12:57;;;;;;;3.97;0.77;;;;;;;;;;4802884;29;20054;-74
2022/11/11 00:15:45;;;;;;;5.55;0.82;;;;;;;;;;4799498;29;20047;-75
2022/11/11 00:27:39;;;;;;;5.03;1.00;;;;;;;;;;4800391;29;20059;-75
2022/11/11 00:30:27;;;;;;;2.22;1.02;;;;;;;;;;4804575;29;20059;-74
2022/11/11 00:33:15;;;;;;;5.07;1.13;;;;;;;;;;4803244;29;20066;-74
2022/11/11 00:36:05;;;;;;;4.13;0.95;;;;;;;;;;4801425;29;20546;-75
2022/11/11 00:38:54;;;;;;;4.47;1.63;;;;;;;;;;4801397;29;20047;-74
2022/11/11 00:41:44;;;;;;;4.85;1.70;;;;;;;;;;4802305;29;20080;-74
2022/11/11 00:44:32;;;;;;;3.92;0.95;;;;;;;;;;4800421;29;20046;-75
2022/11/11 00:53:37;;;;;;;2.92;0.98;;;;;;;;;;4803810;29;20058;-74
2022/11/11 00:56:26;;;;;;;1.73;0.70;;;;;;;;;;4802251;29;20063;-74
2022/11/11 00:59:14;;;;;;;3.85;0.80;;;;;;;;;;4800652;29;20059;-73
2022/11/11 01:02:03;;;;;;;1.58;0.70;;;;;;;;;;4803956;29;20051;-76
2022/11/11 01:04:51;;;;;;;3.08;1.00;;;;;;;;;;4801880;29;20054;-73
2022/11/11 01:07:39;;;;;;;5.95;0.93;;;;;;;;;;4799384;29;20469;-75
2022/11/11 01:10:43;;;;;;;4.35;1.08;;;;;;;;;;4803317;29;20054;-74
2022/11/11 01:13:32;;;;;;;1.67;0.82;;;;;;;;;;4801085;29;20047;-74
2022/11/11 01:16:26;;;;;;;1.27;0.50;;;;;;;;;;4804051;29;20426;-74
2022/11/11 01:19:14;;;;;;;1.55;1.30;;;;;;;;;;4805996;29;20693;-74
2022/11/11 01:22:03;;;;;;;3.20;0.70;;;;;;;;;;4804114;29;20070;-74
2022/11/11 01:24:51;;;;;;;4.03;0.93;;;;;;;;;;4807468;29;20039;-73
2022/11/11 01:27:39;;;;;;;1.55;0.50;;;;;;;;;;4803451;29;20062;-73
2022/11/11 01:30:27;;;;;;;1.98;0.90;;;;;;;;;;4803500;29;20055;-73
2022/11/11 01:33:16;;;;;;;3.55;0.98;;;;;;;;;;4806884;29;20507;-73
2022/11/11 01:36:07;;;;;;;3.88;1.42;;;;;;;;;;4805021;29;20047;-74
2022/11/11 01:38:59;;;;;;;3.33;1.08;;;;;;;;;;4802720;29;20050;-74
2022/11/11 01:41:47;;;;;;;3.30;0.90;;;;;;;;;;4807095;29;20047;-74
2022/11/11 01:44:46;;;;;;;5.47;0.75;;;;;;;;;;4804510;29;20055;-73
2022/11/11 01:51:05;;;;;;;3.28;1.08;;;;;;;;;;4804742;29;20055;-74
2022/11/11 01:54:01;;;;;;;5.70;0.90;;;;;;;;;;4803631;29;20043;-73
2022/11/11 01:56:57;;;;;;;2.40;1.00;;;;;;;;;;4805218;29;20067;-73
2022/11/11 01:59:49;;;;;;;3.95;0.93;;;;;;;;;;4802841;29;20059;-72
2022/11/11 02:02:45;;;;;;;3.78;0.55;;;;;;;;;;4806244;29;20403;-73
2022/11/11 02:05:44;;;;;;;1.77;0.80;;;;;;;;;;4804109;29;20043;-73
2022/11/11 02:08:36;;;;;;;3.08;0.70;;;;;;;;;;4806514;29;20056;-73
2022/11/11 02:14:44;;;;;;;1.88;0.80;;;;;;;;;;4802231;29;20491;-73
2022/11/11 02:17:34;;;;;;;2.17;0.73;;;;;;;;;;4804987;29;20051;-73
2022/11/11 02:20:28;;;;;;;2.67;0.60;;;;;;;;;;4803516;29;20418;-74
2022/11/11 02:23:32;;;;;;;3.42;1.10;;;;;;;;;;4806489;29;20058;-74
2022/11/11 02:26:22;;;;;;;1.83;0.57;;;;;;;;;;4803394;29;20522;-73
2022/11/11 02:29:16;;;;;;;1.63;0.55;;;;;;;;;;4806682;29;20046;-73
2022/11/11 02:32:04;;;;;;;3.78;0.73;;;;;;;;;;4805237;29;20058;-73
2022/11/11 02:34:52;;;;;;;1.35;0.50;;;;;;;;;;4803899;29;20050;-73
2022/11/11 02:37:44;;;;;;;2.45;0.73;;;;;;;;;;4806990;29;20063;-73
2022/11/11 02:41:55;;;;;;;3.03;0.68;;;;;;;;;;4804335;29;20047;-73
2022/11/11 02:43:51;;;;;;;2.47;0.40;;;;;;;;;;4806494;29;20537;-73
2022/11/11 02:46:39;;;;;;;5.80;0.65;;;;;;;;;;4804806;29;20051;-73
2022/11/11 02:49:28;;;;;;;2.28;0.80;;;;;;;;;;4803266;29;20058;-74
2022/11/11 02:52:16;;;;;;;2.05;0.70;;;;;;;;;;4806448;29;20051;-73
2022/11/11 02:55:06;;;;;;;2.40;0.88;;;;;;;;;;4803849;29;20063;-74
2022/11/11 02:57:55;;;;;;;5.35;0.90;;;;;;;;;;4802060;29;20495;-72
2022/11/11 03:00:43;;;;;;;2.00;0.60;;;;;;;;;;4806005;29;20062;-73
2022/11/11 03:03:32;;;;;;;4.65;0.70;;;;;;;;;;4804146;29;20488;-73
2022/11/11 03:06:21;;;;;;;3.63;0.73;;;;;;;;;;4801872;29;20060;-73
2022/11/11 03:09:10;;;;;;;3.42;0.50;;;;;;;;;;4805636;29;20050;-72
2022/11/11 03:11:58;;;;;;;1.67;0.68;;;;;;;;;;4803290;29;20055;-71
2022/11/11 03:14:47;;;;;;;3.80;0.95;;;;;;;;;;4801440;29;20054;-73
2022/11/11 03:17:39;;;;;;;2.05;0.75;;;;;;;;;;4805037;29;20054;-73
2022/11/11 03:23:34;;;;;;;1.75;0.88;;;;;;;;;;4805478;29;20699;-73
2022/11/11 03:26:22;;;;;;;2.85;0.55;;;;;;;;;;4804299;29;20059;-74
2022/11/11 03:29:10;;;;;;;4.55;0.82;;;;;;;;;;4802082;29;20059;-73
2022/11/11 03:31:59;;;;;;;0.52;0.50;;;;;;;;;;4805495;29;20059;-73
2022/11/11 03:34:47;;;;;;;3.47;0.95;;;;;;;;;;4803660;29;20055;-73
2022/11/11 03:40:43;;;;;;;3.60;0.82;;;;;;;;;;4803221;29;20788;-72
2022/11/11 03:43:34;;;;;;;2.83;0.60;;;;;;;;;;4802053;29;20059;-73
2022/11/11 03:46:22;;;;;;;4.97;0.88;;;;;;;;;;4805461;29;20059;-72
2022/11/11 03:49:11;;;;;;;2.95;1.00;;;;;;;;;;4803970;29;20589;-73
2022/11/11 03:51:59;;;;;;;1.05;0.80;;;;;;;;;;4801069;29;20062;-75
2022/11/11 03:54:47;;;;;;;2.22;0.50;;;;;;;;;;4805197;29;20055;-73
2022/11/11 03:57:42;;;;;;;1.30;0.75;;;;;;;;;;4802960;29;20059;-72
2022/11/11 04:00:30;;;;;;;0.60;0.60;;;;;;;;;;4801593;29;20403;-73
2022/11/11 04:16:16;;;;;;;2.03;0.80;;;;;;;;;;4802740;29;20059;-73
2022/11/11 04:22:11;;;;;;;2.45;0.77;;;;;;;;;;4803770;29;20447;-73
2022/11/11 04:31:14;;;;;;;7.57;1.00;;;;;;;;;;4799931;29;20058;-73
2022/11/11 04:34:03;;;;;;;5.60;1.23;;;;;;;;;;4799927;29;20055;-73
2022/11/11 04:36:51;;;;;;;2.33;0.98;;;;;;;;;;4803684;29;20058;-72
2022/11/11 04:42:47;;;;;;;2.95;0.88;;;;;;;;;;4804598;29;20062;-73
2022/11/11 04:45:35;;;;;;;;;;;;;;;;;;4803307;29;20521;-73
2022/11/11 04:48:23;;;;;;;3.72;1.10;;;;;;;;;;4800390;29;20511;-73
2022/11/11 04:51:11;;;;;;;3.03;0.93;;;;;;;;;;4803546;29;20496;-72
2022/11/11 04:53:59;;;;;;;4.43;1.33;;;;;;;;;;4802178;29;20507;-73
2022/11/11 04:56:49;;;;;;;0.80;0.70;;;;;;;;;;4800357;29;20054;-73
2022/11/11 04:59:37;;;;;;;3.58;0.80;;;;;;;;;;4804140;29;20059;-73
2022/11/11 05:09:02;;;;;;;1.08;0.77;;;;;;;;;;4801518;29;20058;-73
2022/11/11 05:11:50;;;;;;;;;;;;;;;;;;4804433;29;20047;-73
2022/11/11 05:27:24;;;;;;;2.60;0.95;;;;;;;;;;4798168;29;20066;-73
2022/11/11 05:30:16;;;;;;;0.68;0.68;;;;;;;;;;4797507;29;20059;-73
2022/11/11 05:33:04;;;;;;;3.85;0.68;;;;;;;;;;4799686;29;20050;-73
2022/11/11 05:35:52;;;;;;;2.55;0.70;;;;;;;;;;4800927;29;20046;-73
2022/11/11 05:38:40;;;;;;;4.15;0.75;;;;;;;;;;4799105;29;20054;-72
2022/11/11 05:41:29;;;;;;;1.85;0.98;;;;;;;;;;4801947;29;20419;-73
2022/11/11 05:44:18;;;;;;;4.05;1.63;;;;;;;;;;4801100;29;20050;-73
2022/11/11 05:47:06;;;;;;;2.30;0.77;;;;;;;;;;4799371;29;20047;-73
2022/11/11 05:49:55;;;;;;;2.47;1.00;;;;;;;;;;4803369;29;20507;-73
2022/11/11 05:52:48;;;;;;;3.92;1.13;;;;;;;;;;4800411;29;20059;-73
2022/11/11 05:55:36;;;;;;;4.05;1.00;;;;;;;;;;4803989;29;20063;-74
2022/11/11 05:58:25;;;;;;;3.65;0.73;;;;;;;;;;4802484;29;20407;-73
2022/11/11 06:01:13;;;;;;;2.88;0.60;;;;;;;;;;4799434;29;20585;-73
2022/11/11 06:04:02;;;;;;;3.13;0.85;;;;;;;;;;4805465;29;20066;-72
2022/11/11 06:06:51;;;;;;;3.38;0.60;;;;;;;;;;4804667;29;20051;-73
2022/11/11 06:09:39;;;;;;;1.50;0.88;;;;;;;;;;4802937;29;20050;-73
2022/11/11 06:13:00;;;;;;;1.70;0.70;;;;;;;;;;4806598;29;20811;-73
2022/11/11 06:15:39;;;;;;;5.18;1.23;;;;;;;;;;4803928;29;20513;-74
2022/11/11 06:18:28;;;;;;;3.25;0.95;;;;;;;;;;4806916;29;20078;-73
2022/11/11 06:21:18;;;;;;;5.13;0.70;;;;;;;;;;4804470;29;20054;-72
2022/11/11 06:24:06;;;;;;;1.63;0.85;;;;;;;;;;4803058;29;20054;-73
2022/11/11 06:26:55;;;;;;;4.97;0.88;;;;;;;;;;4804493;29;20059;-73
2022/11/11 06:29:44;;;;;;;3.53;0.90;;;;;;;;;;4804815;29;20050;-72
2022/11/11 06:32:32;;;;;;;1.20;0.70;;;;;;;;;;4802971;29;20427;-73
2022/11/11 06:35:21;;;;;;;1.85;1.02;;;;;;;;;;4806415;29;20055;-74
2022/11/11 06:38:09;;;;;;;1.30;0.75;;;;;;;;;;4804207;29;20055;-73
2022/11/11 06:40:58;;;;;;;1.67;0.80;;;;;;;;;;4802671;29;20503;-73
2022/11/11 06:43:46;;;;;;;1.35;0.63;;;;;;;;;;4806206;29;20043;-72
2022/11/11 06:46:34;;;;;;;1.67;1.00;;;;;;;;;;4803823;29;20055;-72
2022/11/11 06:49:23;;;;;;;1.42;1.00;;;;;;;;;;4802214;29;20051;-72
2022/11/11 06:52:11;;;;;;;0.88;0.82;;;;;;;;;;4805900;29;20051;-73
2022/11/11 06:54:59;;;;;;;3.80;0.90;;;;;;;;;;4803672;29;20051;-74
2022/11/11 06:57:48;;;;;;;4.03;1.00;;;;;;;;;;4802118;29;20051;-72
2022/11/11 07:00:37;;;;;;;1.10;0.55;;;;;;;;;;4806297;29;20046;-72
2022/11/11 07:03:26;;;;;;;0.73;0.60;;;;;;;;;;4803027;29;20467;-72
2022/11/11 07:06:14;;;;;;;0.98;0.73;;;;;;;;;;4801403;29;20046;-73
2022/11/11 07:09:02;;;;;;;;;;;;;;;;;;4805017;29;20415;-73
2022/11/11 07:11:50;;;;;;;1.65;1.10;;;;;;;;;;4802635;29;20389;-74
2022/11/11 07:14:38;;;;;;;2.25;1.20;;;;;;;;;;4806470;29;20055;-73
2022/11/11 07:17:26;;;;;;;3.22;1.33;;;;;;;;;;4804676;29;20042;-73
2022/11/11 07:20:17;;;;;;;3.67;1.20;;;;;;;;;;4802582;29;20059;-73
2022/11/11 07:23:05;;;;;;;1.33;0.93;;;;;;;;;;4805490;29;20042;-73
2022/11/11 07:25:54;;;;;;;5.60;1.20;;;;;;;;;;4803039;29;20411;-72
2022/11/11 07:28:42;;;;;;;1.90;0.85;;;;;;;;;;4801552;29;20046;-73
2022/11/11 07:31:30;;;;;;;1.55;0.98;;;;;;;;;;4805014;29;20059;-72
2022/11/11 07:34:19;;;;;;;1.25;0.80;;;;;;;;;;4803490;29;20051;-73
2022/11/11 07:37:07;;;;;;;2.63;0.90;;;;;;;;;;4801507;29;20513;-72
2022/11/11 07:39:55;;;;;;;2.88;1.08;;;;;;;;;;4805076;29;20054;-73
2022/11/11 07:42:44;;;;;;;5.45;1.20;;;;;;;;;;4803017;29;20059;-73
2022/11/11 07:45:33;;;;;;;1.65;1.38;;;;;;;;;;4801116;29;20050;-73
2022/11/11 07:48:21;;;;;;;1.98;1.00;;;;;;;;;;4804124;29;20055;-72
2022/11/11 07:51:10;;;;;;;2.35;1.40;;;;;;;;;;4802860;29;20511;-73
2022/11/11 07:53:59;;;;;;;8.00;1.40;;;;;;;;;;4800894;29;20055;-73
2022/11/11 07:56:48;;;;;;;4.22;1.33;;;;;;;;;;4804715;29;20511;-73
2022/11/11 07:59:36;;;;;;;2.55;1.20;;;;;;;;;;4802929;29;20059;-72
2022/11/11 08:02:24;;;;;;;3.10;1.17;;;;;;;;;;4800155;29;20510;-73
2022/11/11 08:05:12;;;;;;;4.30;1.23;;;;;;;;;;4803913;29;20063;-73
2022/11/11 08:08:08;;;;;;;1.95;0.75;;;;;;;;;;4802105;29;20051;-73
2022/11/11 08:10:57;;;;;;;2.15;1.10;;;;;;;;;;4804985;29;20055;-72
2022/11/11 08:13:45;;;;;;;4.22;1.00;;;;;;;;;;4803620;29;20042;-73
2022/11/11 08:16:34;;;;;;;1.60;0.95;;;;;;;;;;4801640;29;20050;-73
2022/11/11 08:19:22;;;;;;;5.55;0.90;;;;;;;;;;4804838;29;20055;-73
2022/11/11 08:22:10;;;;;;;;;;;;;;;;;;4803059;29;20058;-74
2022/11/11 08:24:58;;;;;;;3.28;1.10;;;;;;;;;;4800789;29;20371;-72
2022/11/11 08:27:59;;;;;;;1.77;0.60;;;;;;;;;;4800059;29;20051;-73
2022/11/11 08:30:47;;;;;;;1.85;1.27;;;;;;;;;;4802014;29;20051;-72
2022/11/11 08:33:36;;;;;;;3.38;1.05;;;;;;;;;;4799751;29;20059;-72
2022/11/11 08:36:25;;;;;;;2.78;1.05;;;;;;;;;;4803807;29;20444;-73
2022/11/11 08:39:13;;;;;;;2.83;1.00;;;;;;;;;;4801672;29;20062;-73
2022/11/11 08:42:01;;;;;;;;;;;;;;;;;;4800298;29;20054;-72
2022/11/11 08:44:50;;;;;;;3.60;1.50;;;;;;;;;;4803222;29;19925;-73
2022/11/11 08:47:38;;;;;;;3.45;1.10;;;;;;;;;;4801300;29;20050;-73
2022/11/11 08:50:27;;;;;;;3.10;1.10;;;;;;;;;;4804650;29;20059;-73
2022/11/11 08:53:15;;;;;;;3.97;1.42;;;;;;;;;;4802811;29;20050;-73
2022/11/11 08:56:04;;;;;;;1.88;1.27;;;;;;;;;;4801413;29;20059;-73
2022/11/11 08:58:52;;;;;;;2.17;1.50;;;;;;;;;;4804603;29;20043;-73
2022/11/11 09:01:41;;;;;;;2.08;1.00;;;;;;;;;;4803187;29;20404;-74
2022/11/11 09:04:29;;;;;;;;;;;;;;;;;;4801564;29;20051;-73
2022/11/11 09:07:32;;;;;;;3.58;1.05;;;;;;;;;;4803713;29;19921;-73
2022/11/11 09:10:20;;;;;;;3.97;1.40;;;;;;;;;;4801580;29;20054;-74
2022/11/11 09:13:09;;;;;;;1.90;1.30;;;;;;;;;;4799590;29;20051;-73
2022/11/11 09:15:58;;;;;;;1.42;1.23;;;;;;;;;;4803456;29;20046;-73
2022/11/11 09:18:47;;;;;;;2.97;1.15;;;;;;;;;;4801351;29;20063;-73
2022/11/11 09:21:35;;;;;;;2.20;1.08;;;;;;;;;;4799112;29;20063;-74
2022/11/11 09:24:23;;;;;;;3.28;1.10;;;;;;;;;;4803049;29;20421;-73
2022/11/11 09:27:12;;;;;;;5.20;1.80;;;;;;;;;;4800705;29;21062;-73
2022/11/11 09:30:00;;;;;;;4.15;1.40;;;;;;;;;;4799339;29;20058;-73
2022/11/11 09:32:48;;;;;;;4.78;1.15;;;;;;;;;;4803053;29;20059;-74
2022/11/11 09:35:37;;;;;;;5.70;2.40;;;;;;;;;;4800647;29;20054;-74
2022/11/11 09:38:26;;;;;;;5.57;1.20;;;;;;;;;;4803790;29;20051;-73
2022/11/11 09:41:24;;;;;;;6.55;2.10;;;;;;;;;;4805242;29;20062;-72
2022/11/11 09:44:41;;;;;;;6.40;1.80;;;;;;;;;;4803820;29;20063;-74
2022/11/11 09:47:44;;;;;;;4.10;1.67;;;;;;;;;;4805297;29;20051;-74
2022/11/11 09:50:37;;;;;;;10.23;1.70;;;;;;;;;;4803516;29;20046;-73
2022/11/11 09:53:29;;;;;;;4.82;1.20;;;;;;;;;;4806677;29;20054;-78
2022/11/11 09:56:24;;;;;;;7.53;1.20;;;;;;;;;;4804686;29;20051;-74
2022/11/11 09:59:28;;;;;;;8.63;1.55;;;;;;;;;;4802645;29;20051;-73
2022/11/11 10:02:28;;;;;;;3.35;1.83;;;;;;;;;;4802680;29;20437;-73
2022/11/11 10:05:26;;;;;;;5.30;1.67;;;;;;;;;;4802811;29;20055;-71
2022/11/11 10:08:50;;;;;;;1.77;1.13;;;;;;;;;;4804798;29;20063;-73
2022/11/11 10:12:09;;;;;;;5.18;1.17;;;;;;;;;;4804873;29;20423;-74
2022/11/11 10:15:00;;;;;;;3.30;2.13;;;;;;;;;;4804371;29;20059;-73
2022/11/11 10:18:26;;;;;;;2.85;1.20;;;;;;;;;;4803163;29;20411;-73
2022/11/11 10:21:23;;;;;;;5.00;1.50;;;;;;;;;;4804107;29;20515;-74
2022/11/11 10:24:28;;;;;;;10.05;1.67;;;;;;;;;;4807395;29;20062;-74
2022/11/11 10:27:21;;;;;;;8.52;1.60;;;;;;;;;;4803447;29;20059;-73
2022/11/11 10:30:19;;;;;;;;;;;;;;;;;;4803126;29;20051;-74
2022/11/11 10:33:34;;;;;;;5.88;1.52;;;;;;;;;;4805503;29;19925;-73
2022/11/11 10:36:25;;;;;;;5.90;1.40;;;;;;;;;;4802610;29;20590;-74
2022/11/11 10:39:38;;;;;;;3.25;1.65;;;;;;;;;;4802856;29;20059;-74
2022/11/11 10:42:26;;;;;;;8.20;1.60;;;;;;;;;;4802856;29;20047;-73
2022/11/11 10:45:24;;;;;;;7.68;2.75;;;;;;;;;;4806231;29;20054;-76
2022/11/11 10:48:19;;;;;;;5.38;2.30;;;;;;;;;;4804387;29;20058;-73
2022/11/11 10:51:08;;;;;;;9.98;4.25;;;;;;;;;;4801635;29;20538;-72
2022/11/11 10:54:06;;;;;;;4.88;3.15;;;;;;;;;;4805475;29;20054;-72
2022/11/11 10:57:08;;;;;;;10.70;3.67;;;;;;;;;;4801660;29;20047;-72
2022/11/11 11:00:05;;;;;;;5.72;2.20;;;;;;;;;;4806515;29;20062;-74
2022/11/11 11:03:12;;;;;;;4.35;2.05;;;;;;;;;;4803768;29;20059;-72
2022/11/11 11:06:21;;;;;;;7.60;2.70;;;;;;;;;;4806246;29;20670;-72
2022/11/11 11:09:31;;;;;;;5.10;1.20;;;;;;;;;;4802804;29;20047;-75
2022/11/11 11:12:47;;;;;;;6.40;1.98;;;;;;;;;;4805363;29;20055;-76
2022/11/11 11:15:40;;;;;;;3.38;1.70;;;;;;;;;;4799879;29;20058;-77
2022/11/11 11:18:30;;;;;;;2.42;1.27;;;;;;;;;;4805980;29;20051;-72
2022/11/11 11:21:18;;;;;;;5.43;1.80;;;;;;;;;;4803568;29;20047;-74
2022/11/11 11:24:22;;;;;;;9.27;1.50;;;;;;;;;;4802182;29;20047;-74
2022/11/11 11:27:24;;;;;;;9.63;1.70;;;;;;;;;;4802858;29;20499;-71
2022/11/11 11:30:17;;;;;;;4.78;2.55;;;;;;;;;;4802694;29;20063;-75
2022/11/11 11:33:07;;;;;;;7.80;3.38;;;;;;;;;;4804203;29;20050;-72
2022/11/11 11:35:56;;;;;;;4.70;2.45;;;;;;;;;;4802676;29;20055;-73
2022/11/11 11:38:49;;;;;;;4.45;3.40;;;;;;;;;;4800993;29;20063;-72
2022/11/11 11:41:43;;;;;;;6.30;2.72;;;;;;;;;;4803879;29;20055;-72
2022/11/11 11:44:39;;;;;;;5.70;2.85;;;;;;;;;;4802134;29;20510;-73
2022/11/11 11:47:48;;;;;;;6.00;2.42;;;;;;;;;;4800280;29;20055;-73
2022/11/11 11:51:09;;;;;;;5.82;2.28;;;;;;;;;;4801701;29;20055;-74
2022/11/11 11:54:00;;;;;;;5.90;2.33;;;;;;;;;;4805238;29;20054;-73
2022/11/11 11:56:56;;;;;;;3.05;1.83;;;;;;;;;;4803565;29;20503;-74
2022/11/11 12:00:12;;;;;;;4.00;1.67;;;;;;;;;;4800296;29;20063;-73
2022/11/11 12:03:34;;;;;;;3.03;1.52;;;;;;;;;;4803164;29;20503;-74
2022/11/11 12:06:34;;;;;;;3.60;1.25;;;;;;;;;;4804639;29;20050;-74
2022/11/11 12:09:34;;;;;;;2.28;1.48;;;;;;;;;;4803048;29;20051;-74
2022/11/11 12:12:45;;;;;;;5.35;1.50;;;;;;;;;;4799917;29;20054;-73
2022/11/11 12:15:41;;;;;;;8.73;5.72;;;;;;;;;;4803095;29;20419;-74
2022/11/11 12:18:35;;;;;;;4.43;1.00;;;;;;;;;;4800559;29;20054;-74
2022/11/11 12:21:31;;;;;;;3.20;1.40;;;;;;;;;;4803978;29;20058;-78
2022/11/11 12:25:13;;;;;;;2.47;1.13;;;;;;;;;;4802061;29;20059;-75
2022/11/11 12:28:39;;;;;;;4.25;1.40;;;;;;;;;;4799466;29;20051;-74
2022/11/11 12:31:44;;;;;;;1.40;1.08;;;;;;;;;;4779181;29;20807;-75
2022/11/11 12:35:16;;;;;;;5.15;1.00;;;;;;;;;;4802044;29;20054;-74
2022/11/11 12:38:50;;;;;;;15.18;2.00;;;;;;;;;;4803317;29;20059;-75
2022/11/11 12:41:47;;;;;;;2.25;1.00;;;;;;;;;;4798658;29;20063;-75
2022/11/11 12:44:54;;;;;;;5.43;1.40;;;;;;;;;;4803164;29;20055;-75
2022/11/11 12:48:23;;;;;;;3.10;1.30;;;;;;;;;;4800324;29;20063;-74
2022/11/11 12:51:31;;;;;;;4.38;1.83;;;;;;;;;;4801722;29;20051;-74
2022/11/11 12:54:47;;;;;;;3.65;1.27;;;;;;;;;;4804996;29;20055;-75
2022/11/11 12:58:00;;;;;;;4.85;1.45;;;;;;;;;;4801684;29;20055;-75
2022/11/11 13:01:08;;;;;;;4.15;1.48;;;;;;;;;;4803019;29;20511;-74
2022/11/11 13:04:15;;;;;;;3.80;1.30;;;;;;;;;;4801021;29;20058;-75
2022/11/11 13:07:40;;;;;;;3.88;1.60;;;;;;;;;;4804286;29;20047;-75
2022/11/11 13:10:56;;;;;;;2.80;1.25;;;;;;;;;;4801681;29;20059;-75
2022/11/11 13:13:56;;;;;;;7.68;1.50;;;;;;;;;;4806281;29;20051;-75
2022/11/11 13:16:44;;;;;;;1.42;1.10;;;;;;;;;;4804182;29;20043;-75
2022/11/11 13:20:06;;;;;;;3.92;1.30;;;;;;;;;;4807194;29;20412;-74
2022/11/11 13:22:54;;;;;;;4.93;2.20;;;;;;;;;;4803063;29;20050;-75
2022/11/11 13:25:49;;;;;;;2.97;1.15;;;;;;;;;;4807152;29;20059;-75
2022/11/11 13:28:46;;;;;;;8.80;3.92;;;;;;;;;;4805133;29;20055;-76
2022/11/11 13:31:38;;;;;;;6.13;1.92;;;;;;;;;;4803388;29;20423;-75
2022/11/11 13:34:33;;;;;;;3.10;1.40;;;;;;;;;;4806769;29;20059;-75
2022/11/11 13:37:27;;;;;;;2.97;1.50;;;;;;;;;;4804389;29;20059;-75
2022/11/11 13:40:28;;;;;;;1.27;1.10;;;;;;;;;;4807222;29;21413;-74
2022/11/11 13:43:24;;;;;;;3.45;1.35;;;;;;;;;;4804976;29;20495;-75
2022/11/11 13:46:35;;;;;;;4.07;1.23;;;;;;;;;;4808115;29;20051;-76
2022/11/11 13:49:28;;;;;;;2.90;1.60;;;;;;;;;;4804964;29;20046;-76
2022/11/11 13:52:23;;;;;;;3.60;1.50;;;;;;;;;;4802536;29;20515;-75
2022/11/11 13:55:26;;;;;;;3.67;1.83;;;;;;;;;;4806097;29;20059;-75
2022/11/11 13:58:26;;;;;;;3.05;1.48;;;;;;;;;;4803716;29;20059;-75
2022/11/11 14:01:16;;;;;;;5.35;1.60;;;;;;;;;;4806421;29;20055;-75
2022/11/11 14:04:08;;;;;;;4.80;2.33;;;;;;;;;;4802831;29;20051;-76
2022/11/11 14:06:56;;;;;;;4.10;1.35;;;;;;;;;;4802339;29;20043;-75
2022/11/11 14:10:01;;;;;;;1.92;1.63;;;;;;;;;;4806106;29;20055;-75
2022/11/11 14:12:55;;;;;;;4.07;1.70;;;;;;;;;;4803703;29;20548;-75
2022/11/11 14:15:48;;;;;;;2.53;1.40;;;;;;;;;;4806475;29;20059;-75
2022/11/11 14:18:41;;;;;;;7.32;1.50;;;;;;;;;;4804744;29;20059;-76
2022/11/11 14:21:49;;;;;;;3.30;1.80;;;;;;;;;;4802413;29;20055;-80
2022/11/11 14:24:47;;;;;;;2.30;1.70;;;;;;;;;;4803919;29;20055;-75
2022/11/11 14:27:35;;;;;;;3.88;1.60;;;;;;;;;;4802273;29;20051;-75
2022/11/11 14:30:31;;;;;;;2.72;1.67;;;;;;;;;;4806253;29;20063;-75
2022/11/11 14:33:50;;;;;;;8.10;2.00;;;;;;;;;;4803693;29;20050;-75
2022/11/11 14:36:48;;;;;;;4.80;2.00;;;;;;;;;;4806008;29;20055;-75
2022/11/11 14:39:46;;;;;;;3.42;1.92;;;;;;;;;;4802782;29;20059;-76
2022/11/11 14:42:34;;;;;;;4.07;2.00;;;;;;;;;;4807338;29;20495;-76
2022/11/11 14:45:25;;;;;;;4.00;1.98;;;;;;;;;;4805436;29;20050;-75
2022/11/11 14:48:53;;;;;;;3.30;1.80;;;;;;;;;;4802234;29;20047;-75
2022/11/11 14:51:46;;;;;;;3.70;1.83;;;;;;;;;;4804269;29;20051;-75
2022/11/11 14:54:43;;;;;;;7.45;2.10;;;;;;;;;;4802139;29;20070;-75
2022/11/11 14:57:41;;;;;;;5.10;2.10;;;;;;;;;;4805423;29;20055;-76
2022/11/11 15:00:42;;;;;;;3.95;1.90;;;;;;;;;;4803171;29;20043;-75
2022/11/11 15:03:48;;;;;;;3.20;2.03;;;;;;;;;;4806110;29;20059;-75
2022/11/11 15:06:56;;;;;;;5.15;2.25;;;;;;;;;;4804362;29;20403;-76
2022/11/11 15:10:02;;;;;;;3.38;2.10;;;;;;;;;;4805873;29;20487;-77
2022/11/11 15:13:00;;;;;;;4.30;2.00;;;;;;;;;;4802896;29;20058;-76
2022/11/11 15:16:16;;;;;;;2.95;1.80;;;;;;;;;;4801293;29;20055;-73
2022/11/11 15:19:46;;;;;;;4.22;2.28;;;;;;;;;;4803588;29;20452;-79
2022/11/11 15:22:46;;;;;;;4.70;2.50;;;;;;;;;;4804960;29;20047;-73
2022/11/11 15:26:06;;;;;;;2.53;2.00;;;;;;;;;;4803033;29;20055;-73
2022/11/11 15:29:05;;;;;;;4.70;2.45;;;;;;;;;;4805330;29;20503;-73
2022/11/11 15:32:38;;;;;;;3.13;2.22;;;;;;;;;;4802320;29;20046;-73
2022/11/11 15:35:35;;;;;;;3.22;2.25;;;;;;;;;;4799812;29;20055;-73
2022/11/11 15:38:24;;;;;;;5.97;2.47;;;;;;;;;;4802059;29;20047;-73
2022/11/11 15:41:34;;;;;;;3.50;2.33;;;;;;;;;;4805243;29;20070;-73
2022/11/11 15:44:23;;;;;;;6.45;2.38;;;;;;;;;;4801964;29;20043;-74
2022/11/11 15:47:15;;;;;;;6.85;2.65;;;;;;;;;;4803989;29;20058;-74
2022/11/11 15:50:04;;;;;;;4.75;2.53;;;;;;;;;;4803523;29;20046;-73
2022/11/11 15:52:59;;;;;;;8.40;2.90;;;;;;;;;;4801781;29;20055;-74
2022/11/11 15:55:56;;;;;;;5.28;2.60;;;;;;;;;;4804362;29;20047;-74
2022/11/11 15:58:44;;;;;;;6.65;2.65;;;;;;;;;;4802434;29;20055;-73
2022/11/11 16:01:32;;;;;;;6.75;2.63;;;;;;;;;;4800261;29;20047;-74
2022/11/11 16:04:23;;;;;;;5.50;2.92;;;;;;;;;;4800465;29;20059;-74
2022/11/11 16:07:40;;;;;;;5.35;3.20;;;;;;;;;;4801577;29;20055;-74
2022/11/11 16:10:31;;;;;;;5.85;3.13;;;;;;;;;;4805034;29;20063;-73
2022/11/11 16:13:37;;;;;;;7.78;2.83;;;;;;;;;;4802447;29;20055;-74
2022/11/11 16:16:32;;;;;;;7.45;2.83;;;;;;;;;;4805152;29;20055;-74
2022/11/11 16:19:33;;;;;;;5.88;2.80;;;;;;;;;;4803383;29;20507;-75
2022/11/11 16:22:35;;;;;;;3.72;2.45;;;;;;;;;;4800258;29;20063;-74
2022/11/11 16:25:24;;;;;;;6.82;2.90;;;;;;;;;;4803411;29;20062;-74
2022/11/11 16:28:13;;;;;;;8.25;2.92;;;;;;;;;;4802014;29;20519;-73
2022/11/11 16:31:25;;;;;;;8.85;3.03;;;;;;;;;;4805984;29;20059;-74
2022/11/11 16:34:29;;;;;;;6.13;3.92;;;;;;;;;;4801854;29;20573;-74
2022/11/11 16:37:18;;;;;;;4.93;2.67;;;;;;;;;;4799914;29;20043;-76
2022/11/11 16:40:25;;;;;;;6.00;3.22;;;;;;;;;;4802582;29;20499;-74
2022/11/11 16:43:19;;;;;;;9.82;4.65;;;;;;;;;;4800076;29;20047;-74
2022/11/11 16:46:12;;;;;;;5.00;3.10;;;;;;;;;;4803386;29;20055;-74
2022/11/11 16:49:19;;;;;;;7.05;3.30;;;;;;;;;;4801379;29;20054;-74
2022/11/11 16:52:27;;;;;;;8.15;3.30;;;;;;;;;;4803702;29;20398;-75
2022/11/11 16:55:48;;;;;;;6.43;3.17;;;;;;;;;;4801115;29;20058;-75
2022/11/11 16:58:40;;;;;;;6.22;3.38;;;;;;;;;;4802126;29;20059;-74
2022/11/11 17:01:30;;;;;;;9.40;3.60;;;;;;;;;;4800938;29;20055;-74
2022/11/11 17:04:18;;;;;;;5.57;3.40;;;;;;;;;;4804382;29;20054;-73
2022/11/11 17:07:06;;;;;;;6.45;3.28;;;;;;;;;;4801525;29;20125;-74
2022/11/11 17:10:09;;;;;;;6.13;2.80;;;;;;;;;;4801209;29;20058;-75
2022/11/11 17:12:58;;;;;;;10.82;3.80;;;;;;;;;;4803571;29;20055;-74
2022/11/11 17:15:46;;;;;;;7.57;3.70;;;;;;;;;;4801556;29;20506;-74
2022/11/11 17:18:38;;;;;;;7.82;3.60;;;;;;;;;;4799408;29;20444;-74
2022/11/11 17:21:26;;;;;;;5.75;3.05;;;;;;;;;;4803223;29;20055;-74
2022/11/11 17:24:14;;;;;;;7.03;3.40;;;;;;;;;;4801290;29;20043;-74
2022/11/11 17:27:05;;;;;;;8.73;3.58;;;;;;;;;;4799861;29;20533;-74
2022/11/11 17:29:53;;;;;;;9.93;3.63;;;;;;;;;;4802655;29;20055;-73
2022/11/11 17:32:42;;;;;;;6.22;3.33;;;;;;;;;;4801126;29;20054;-74
2022/11/11 17:35:30;;;;;;;7.10;3.83;;;;;;;;;;4804617;29;20047;-74
2022/11/11 17:38:20;;;;;;;4.55;3.95;;;;;;;;;;4802529;29;20062;-73
2022/11/11 17:41:13;;;;;;;11.85;4.30;;;;;;;;;;4801119;29;20403;-73
2022/11/11 17:44:02;;;;;;;6.20;3.45;;;;;;;;;;4803427;29;20426;-75
2022/11/11 17:46:50;;;;;;;6.55;3.70;;;;;;;;;;4801895;29;20055;-74
2022/11/11 17:49:38;;;;;;;7.05;3.67;;;;;;;;;;4799975;29;20050;-75
2022/11/11 17:52:43;;;;;;;6.68;4.00;;;;;;;;;;4802833;29;20085;-75
2022/11/11 17:55:32;;;;;;;7.25;4.40;;;;;;;;;;4801284;29;20055;-74
2022/11/11 17:58:20;;;;;;;6.85;4.20;;;;;;;;;;4804814;29;20503;-74
2022/11/11 18:01:13;;;;;;;8.27;4.03;;;;;;;;;;4805574;29;20479;-75
2022/11/11 18:04:03;;;;;;;10.60;4.40;;;;;;;;;;4803806;29;20063;-74
2022/11/11 18:06:51;;;;;;;13.45;4.60;;;;;;;;;;4805793;29;20055;-74
2022/11/11 18:09:39;;;;;;;6.28;3.85;;;;;;;;;;4805388;29;20051;-76
2022/11/11 18:12:28;;;;;;;5.40;4.05;;;;;;;;;;4803309;29;20062;-74
2022/11/11 18:15:17;;;;;;;5.45;3.75;;;;;;;;;;4807051;29;20063;-74
2022/11/11 18:18:06;;;;;;;5.93;3.78;;;;;;;;;;4804765;29;20054;-74
2022/11/11 18:21:00;;;;;;;7.45;4.20;;;;;;;;;;4802901;29;20059;-73
2022/11/11 18:23:49;;;;;;;5.93;3.90;;;;;;;;;;4806646;29;20055;-74
2022/11/11 18:26:38;;;;;;;5.30;3.28;;;;;;;;;;4804325;29;20055;-73
2022/11/11 18:29:27;;;;;;;9.48;4.13;;;;;;;;;;4802125;29;20513;-73
2022/11/11 18:32:16;;;;;;;8.07;3.60;;;;;;;;;;4805365;29;20043;-75
2022/11/11 18:35:05;;;;;;;5.30;3.90;;;;;;;;;;4804143;29;20051;-73
2022/11/11 18:37:53;;;;;;;8.55;4.63;;;;;;;;;;4801767;29;20121;-76
2022/11/11 18:40:41;;;;;;;7.07;4.22;;;;;;;;;;4805419;29;20063;-76
2022/11/11 18:43:39;;;;;;;7.38;4.00;;;;;;;;;;4802753;29;20050;-73